Time;durP1;ratioP1;P1;durP2;ratioP2;P2;SDS_P1;SDS_P2;PMS_P1;PMS_P2;Temp;Humidity;BMP_temperature;BMP_pressure;BME280_temperature;BME280_humidity;BME280_pressure;Samples;Min_cycle;Max_cycle;Signal;HPM_P1;HPM_P2
2022/12/08 00:02:17;;;;;;;25.02;16.77;;;1.00;99.90;;;;;;5030943;28;20033;-54
2022/12/08 00:10:10;;;;;;;33.97;17.30;;;0.80;99.90;;;;;;5050774;28;20083;-55
2022/12/08 00:12:36;;;;;;;28.17;17.02;;;0.70;99.90;;;;;;5048303;28;20068;-50
2022/12/08 00:15:02;;;;;;;33.38;19.50;;;0.60;99.90;;;;;;5030821;28;20537;-54
2022/12/08 00:17:28;;;;;;;84.35;37.83;;;0.60;99.90;;;;;;5030653;28;20038;-55
2022/12/08 00:19:53;;;;;;;49.58;23.42;;;0.50;99.90;;;;;;5030472;28;20070;-56
2022/12/08 00:22:19;;;;;;;39.78;20.33;;;0.40;99.90;;;;;;5031826;28;20113;-53
2022/12/08 00:24:45;;;;;;;35.85;20.00;;;0.20;99.90;;;;;;5030720;28;20025;-54
2022/12/08 00:27:13;;;;;;;27.08;18.42;;;0.20;99.90;;;;;;5030403;28;20572;-53
2022/12/08 00:29:41;;;;;;;27.52;18.35;;;0.20;99.90;;;;;;5030715;28;20014;-53
2022/12/08 00:32:07;;;;;;;39.60;20.38;;;0.20;99.90;;;;;;5039623;27;20380;-53
2022/12/08 00:34:32;;;;;;;30.83;18.23;;;0.10;99.90;;;;;;5050087;27;20047;-51
2022/12/08 00:36:58;;;;;;;29.05;18.38;;;0.00;99.90;;;;;;5050303;28;20113;-55
2022/12/08 00:39:24;;;;;;;43.83;22.85;;;-0.10;99.90;;;;;;5050256;27;20536;-53
2022/12/08 00:44:33;;;;;;;34.40;20.80;;;-0.30;99.90;;;;;;5030871;28;20048;-54
2022/12/08 00:46:59;;;;;;;32.05;19.45;;;-0.40;99.90;;;;;;5030213;28;20021;-54
2022/12/08 00:49:25;;;;;;;31.58;20.30;;;-0.50;99.90;;;;;;5030278;28;20033;-54
2022/12/08 00:51:51;;;;;;;42.35;22.23;;;-0.50;99.90;;;;;;5036724;28;20425;-55
2022/12/08 00:54:18;;;;;;;48.20;27.30;;;-0.60;99.90;;;;;;5049736;27;20060;-54
2022/12/08 00:56:44;;;;;;;38.13;22.55;;;-0.60;99.90;;;;;;5050179;27;20040;-53
2022/12/08 00:59:09;;;;;;;34.08;20.80;;;-0.70;99.90;;;;;;5050125;28;20037;-52
2022/12/08 01:01:35;;;;;;;35.00;19.98;;;-0.70;99.90;;;;;;5045495;27;20025;-53
2022/12/08 01:04:11;;;;;;;44.63;21.10;;;-0.80;99.90;;;;;;5029857;28;20030;-52
2022/12/08 01:06:38;;;;;;;41.58;21.33;;;-0.80;99.90;;;;;;5030178;28;20032;-52
2022/12/08 01:09:05;;;;;;;36.30;20.90;;;-0.90;99.90;;;;;;5029858;28;20025;-53
2022/12/08 01:11:31;;;;;;;35.63;19.67;;;-0.90;99.90;;;;;;5033285;28;20037;-50
2022/12/08 01:13:57;;;;;;;42.03;21.13;;;-1.00;99.90;;;;;;5049825;27;20036;-54
2022/12/08 01:16:29;;;;;;;36.45;19.45;;;-1.00;99.90;;;;;;5049038;28;20025;-52
2022/12/08 01:18:56;;;;;;;34.00;19.25;;;-1.00;99.90;;;;;;5049390;27;20065;-51
2022/12/08 01:21:22;;;;;;;35.78;19.25;;;-1.10;99.90;;;;;;5046093;27;20496;-53
2022/12/08 01:23:48;;;;;;;29.33;19.15;;;-1.10;99.90;;;;;;5029827;28;20026;-52
2022/12/08 01:26:15;;;;;;;27.80;18.42;;;-1.20;99.90;;;;;;5029715;28;20023;-50
2022/12/08 01:28:42;;;;;;;37.72;19.75;;;-1.20;99.90;;;;;;5029780;28;20108;-52
2022/12/08 01:31:16;;;;;;;34.88;19.13;;;-1.20;99.90;;;;;;5029464;28;20033;-52
2022/12/08 01:33:42;;;;;;;34.45;19.27;;;-1.20;99.90;;;;;;5029858;28;20539;-53
2022/12/08 01:36:22;;;;;;;37.92;20.38;;;-1.20;99.90;;;;;;5029327;28;20117;-54
2022/12/08 01:38:48;;;;;;;32.92;18.70;;;-1.30;99.90;;;;;;5029407;28;20029;-54
2022/12/08 01:41:17;;;;;;;31.02;18.67;;;-1.30;99.90;;;;;;5036955;28;20507;-52
2022/12/08 01:44:06;;;;;;;43.88;18.58;;;-1.30;99.90;;;;;;5049202;28;20024;-50
2022/12/08 01:46:34;;;;;;;31.83;17.80;;;-1.30;99.90;;;;;;5049118;27;20013;-50
2022/12/08 01:49:25;;;;;;;28.95;17.52;;;-1.30;99.90;;;;;;5049271;27;20026;-53
2022/12/08 01:51:59;;;;;;;24.67;15.88;;;-1.20;99.90;;;;;;5043804;28;20025;-53
2022/12/08 01:54:30;;;;;;;31.70;17.58;;;-1.20;99.90;;;;;;5029247;28;20033;-56
2022/12/08 01:57:02;;;;;;;24.98;15.82;;;-1.20;99.90;;;;;;5029109;28;20033;-50
2022/12/08 01:59:31;;;;;;;24.70;16.13;;;-1.10;99.90;;;;;;5029271;28;20037;-50
2022/12/08 02:01:57;;;;;;;30.23;17.20;;;-1.00;99.90;;;;;;5034620;28;20044;-53
2022/12/08 02:04:23;;;;;;;31.17;16.30;;;-1.00;99.90;;;;;;5049252;28;20647;-52
2022/12/08 02:06:50;;;;;;;31.92;17.02;;;-0.90;99.90;;;;;;5048838;28;20489;-55
2022/12/08 02:09:17;;;;;;;30.48;17.35;;;-0.90;99.90;;;;;;5048910;28;20065;-51
2022/12/08 02:11:43;;;;;;;29.60;17.65;;;-0.80;99.90;;;;;;5043534;28;20419;-54
2022/12/08 02:14:11;;;;;;;28.13;16.05;;;-0.80;99.90;;;;;;5029100;28;20025;-53
2022/12/08 02:16:58;;;;;;;26.52;15.30;;;-0.70;99.90;;;;;;5030035;28;20044;-53
2022/12/08 02:19:48;;;;;;;27.27;15.38;;;-0.70;99.90;;;;;;5028885;28;20034;-52
2022/12/08 02:22:21;;;;;;;22.38;16.25;;;-0.60;99.90;;;;;;5036404;28;20027;-51
2022/12/08 02:25:00;;;;;;;30.25;16.17;;;-0.60;99.90;;;;;;5048925;27;20025;-55
2022/12/08 02:27:53;;;;;;;31.50;16.15;;;-0.50;99.90;;;;;;5048399;27;20025;-54
2022/12/08 02:30:29;;;;;;;29.17;16.92;;;-0.50;99.90;;;;;;5048380;28;20464;-55
2022/12/08 02:33:15;;;;;;;28.92;15.95;;;-0.40;99.90;;;;;;5035084;28;20037;-52
2022/12/08 02:35:52;;;;;;;23.80;15.10;;;-0.40;99.90;;;;;;5027635;28;20112;-53
2022/12/08 02:38:50;;;;;;;25.52;15.07;;;-0.40;99.90;;;;;;5028684;28;20057;-53
2022/12/08 02:41:29;;;;;;;29.33;15.82;;;-0.40;99.90;;;;;;5028666;28;20018;-52
2022/12/08 02:44:20;;;;;;;26.27;15.95;;;-0.40;99.90;;;;;;5028378;28;20069;-52
2022/12/08 02:46:54;;;;;;;29.92;17.00;;;-0.40;99.90;;;;;;5028576;28;20057;-53
2022/12/08 02:49:20;;;;;;;26.73;15.82;;;-0.30;99.90;;;;;;5028637;28;20025;-53
2022/12/08 02:51:45;;;;;;;22.95;15.55;;;-0.30;99.90;;;;;;5032117;27;20077;-54
2022/12/08 02:54:13;;;;;;;24.00;14.57;;;-0.30;99.90;;;;;;5048151;28;20029;-51
2022/12/08 02:56:53;;;;;;;23.33;14.45;;;-0.30;99.90;;;;;;5048425;27;20029;-52
2022/12/08 03:00:03;;;;;;;22.85;15.15;;;-0.30;99.90;;;;;;5048382;28;20033;-53
2022/12/08 03:02:35;;;;;;;22.60;14.38;;;-0.30;99.90;;;;;;5014515;28;20045;-49
2022/12/08 03:05:22;;;;;;;19.90;14.10;;;-0.40;99.90;;;;;;5048099;28;20171;-50
2022/12/08 03:08:17;;;;;;;20.40;14.07;;;-0.30;99.90;;;;;;5048331;28;20025;-49
2022/12/08 03:11:07;;;;;;;19.85;14.43;;;-0.30;99.90;;;;;;5041017;28;20061;-51
2022/12/08 03:13:46;;;;;;;22.35;14.68;;;-0.30;99.90;;;;;;5028260;28;20046;-50
2022/12/08 03:16:18;;;;;;;21.38;14.00;;;-0.20;99.90;;;;;;5028235;28;20742;-53
2022/12/08 03:18:51;;;;;;;21.15;14.60;;;-0.30;99.90;;;;;;5029205;28;20034;-52
2022/12/08 03:21:19;;;;;;;22.88;14.55;;;-0.30;99.90;;;;;;5028238;28;20029;-54
2022/12/08 03:23:46;;;;;;;20.35;14.27;;;-0.30;99.90;;;;;;5028130;28;20112;-54
2022/12/08 03:26:33;;;;;;;21.08;14.38;;;-0.30;99.90;;;;;;5028154;28;20090;-53
2022/12/08 03:28:58;;;;;;;23.70;14.73;;;-0.30;99.90;;;;;;5030622;28;20017;-51
2022/12/08 03:31:28;;;;;;;19.52;12.63;;;-0.30;99.90;;;;;;5048010;28;20573;-51
2022/12/08 03:33:55;;;;;;;21.55;13.73;;;-0.30;99.90;;;;;;5047808;28;20611;-54
2022/12/08 03:36:22;;;;;;;23.17;14.90;;;-0.40;99.90;;;;;;5048008;27;20160;-52
2022/12/08 03:38:52;;;;;;;22.23;13.50;;;-0.40;99.90;;;;;;5046328;27;20124;-52
2022/12/08 03:41:18;;;;;;;21.00;13.77;;;-0.50;99.90;;;;;;5031069;28;20060;-51
2022/12/08 03:43:48;;;;;;;18.70;12.80;;;-0.50;99.90;;;;;;5031184;28;20113;-52
2022/12/08 03:46:16;;;;;;;23.48;14.88;;;-0.50;99.90;;;;;;5040310;28;20508;-53
2022/12/08 03:48:42;;;;;;;19.10;13.63;;;-0.50;99.90;;;;;;5050449;27;20590;-52
2022/12/08 03:51:08;;;;;;;24.23;13.77;;;-0.50;99.90;;;;;;5050121;28;20036;-50
2022/12/08 03:53:34;;;;;;;21.52;13.80;;;-0.50;99.90;;;;;;5050394;27;20419;-55
2022/12/08 03:56:00;;;;;;;22.33;13.80;;;-0.50;99.90;;;;;;5043704;28;20061;-53
2022/12/08 03:58:26;;;;;;;20.10;13.30;;;-0.60;99.90;;;;;;5030017;28;20044;-51
2022/12/08 04:00:51;;;;;;;23.75;14.88;;;-0.60;99.90;;;;;;5030142;28;20028;-52
2022/12/08 04:03:17;;;;;;;22.75;13.70;;;-0.60;99.90;;;;;;5030220;28;20034;-51
2022/12/08 04:05:43;;;;;;;19.75;12.55;;;-0.60;99.90;;;;;;5034540;28;20040;-54
2022/12/08 04:08:08;;;;;;;19.58;13.48;;;-0.70;99.90;;;;;;5049370;27;20037;-53
2022/12/08 04:10:34;;;;;;;18.88;12.55;;;-0.70;99.90;;;;;;5050680;28;20044;-54
2022/12/08 04:12:59;;;;;;;21.13;14.15;;;-0.70;99.90;;;;;;5050595;28;20503;-53
2022/12/08 04:15:25;;;;;;;19.95;13.05;;;-0.70;99.90;;;;;;5049138;27;20032;-55
2022/12/08 04:17:51;;;;;;;20.77;13.88;;;-0.80;99.90;;;;;;5030658;28;20033;-55
2022/12/08 04:20:16;;;;;;;21.80;14.27;;;-0.80;99.90;;;;;;5030665;28;20410;-53
2022/12/08 04:22:42;;;;;;;24.33;13.90;;;-0.80;99.90;;;;;;5030866;28;20071;-53
2022/12/08 04:25:08;;;;;;;22.58;14.68;;;-0.80;99.90;;;;;;5030554;28;20025;-51
2022/12/08 04:27:33;;;;;;;20.20;12.88;;;-0.80;99.90;;;;;;5049146;27;20033;-53
2022/12/08 04:29:59;;;;;;;18.15;12.65;;;-0.80;99.90;;;;;;5050550;28;20436;-50
2022/12/08 04:32:24;;;;;;;15.07;11.15;;;-0.80;99.90;;;;;;5049070;28;20029;-53
2022/12/08 04:34:50;;;;;;;20.35;13.10;;;-0.80;99.90;;;;;;5050568;28;20040;-53
2022/12/08 04:37:16;;;;;;;20.67;13.35;;;-0.80;99.90;;;;;;5033884;28;20030;-54
2022/12/08 04:39:41;;;;;;;24.75;13.50;;;-0.90;99.90;;;;;;5030494;28;20057;-52
2022/12/08 04:42:07;;;;;;;18.70;12.27;;;-0.90;99.90;;;;;;5030313;28;20022;-52
2022/12/08 04:44:32;;;;;;;23.77;12.90;;;-0.90;99.90;;;;;;5030359;28;20036;-55
2022/12/08 04:46:58;;;;;;;17.63;12.75;;;-0.90;99.90;;;;;;5041946;27;20040;-55
2022/12/08 04:49:24;;;;;;;18.38;12.48;;;-0.90;99.90;;;;;;5048949;28;20033;-55
2022/12/08 04:51:49;;;;;;;19.17;12.80;;;-0.90;99.90;;;;;;5049383;28;20053;-51
2022/12/08 04:54:15;;;;;;;20.67;11.68;;;-1.00;99.90;;;;;;5049947;27;20462;-53
2022/12/08 04:56:40;;;;;;;18.80;12.68;;;-1.00;99.90;;;;;;5039365;27;20038;-53
2022/12/08 04:59:06;;;;;;;17.45;12.35;;;-1.00;99.90;;;;;;5029865;28;20025;-53
2022/12/08 05:01:32;;;;;;;18.90;13.30;;;-1.10;99.90;;;;;;5030169;28;20025;-51
2022/12/08 05:03:57;;;;;;;20.10;12.50;;;-1.10;99.90;;;;;;5030067;28;20100;-53
2022/12/08 05:06:23;;;;;;;16.90;12.35;;;-1.10;99.90;;;;;;5037800;28;20680;-53
2022/12/08 05:08:49;;;;;;;22.58;13.60;;;-1.10;99.90;;;;;;5049931;28;20031;-54
2022/12/08 05:11:14;;;;;;;19.52;12.98;;;-1.20;99.90;;;;;;5049522;27;20041;-56
2022/12/08 05:13:40;;;;;;;21.40;13.68;;;-1.30;99.90;;;;;;5049958;28;20048;-51
2022/12/08 05:16:09;;;;;;;25.55;12.55;;;-1.30;99.90;;;;;;5043849;28;20025;-52
2022/12/08 05:18:36;;;;;;;21.05;12.85;;;-1.40;99.90;;;;;;5034256;28;20032;-51
2022/12/08 05:21:02;;;;;;;19.77;11.23;;;-1.40;99.90;;;;;;5049597;27;20059;-52
2022/12/08 05:23:28;;;;;;;14.55;11.82;;;-1.50;99.90;;;;;;5048383;28;20021;-55
2022/12/08 05:25:54;;;;;;;15.68;11.45;;;-1.50;99.90;;;;;;5049437;27;20027;-54
2022/12/08 05:28:20;;;;;;;16.05;10.77;;;-1.50;99.90;;;;;;5048064;28;20028;-53
2022/12/08 05:30:46;;;;;;;19.95;11.65;;;-1.60;99.90;;;;;;5029640;28;20041;-54
2022/12/08 05:33:12;;;;;;;37.75;16.45;;;-1.60;99.90;;;;;;5029618;28;20030;-52
2022/12/08 05:35:37;;;;;;;25.88;13.50;;;-1.50;99.90;;;;;;5029658;28;20026;-55
2022/12/08 05:38:04;;;;;;;47.40;22.38;;;-1.50;99.90;;;;;;5029194;28;20034;-49
2022/12/08 05:40:29;;;;;;;102.93;42.00;;;-1.50;99.90;;;;;;5048358;28;20060;-55
2022/12/08 05:42:55;;;;;;;32.38;18.00;;;-1.50;99.90;;;;;;5049206;28;20030;-52
2022/12/08 05:45:20;;;;;;;27.13;14.52;;;-1.60;99.90;;;;;;5049247;27;20037;-50
2022/12/08 05:47:46;;;;;;;30.25;15.02;;;-1.60;99.90;;;;;;5038263;28;20029;-52
2022/12/08 05:50:12;;;;;;;22.98;14.85;;;-1.60;99.90;;;;;;5029266;28;20025;-51
2022/12/08 05:52:37;;;;;;;31.95;16.30;;;-1.60;99.90;;;;;;5029295;28;20025;-54
2022/12/08 05:55:03;;;;;;;28.65;15.25;;;-1.60;99.90;;;;;;5029219;28;20456;-55
2022/12/08 05:57:29;;;;;;;29.20;15.18;;;-1.60;99.90;;;;;;5036161;28;20117;-54
2022/12/08 05:59:55;;;;;;;19.95;12.10;;;-1.60;99.90;;;;;;5048893;28;20017;-52
2022/12/08 06:02:21;;;;;;;15.68;12.02;;;-1.60;99.90;;;;;;5049154;28;20134;-54
2022/12/08 06:04:47;;;;;;;17.90;11.80;;;-1.70;99.90;;;;;;5049065;28;20425;-51
2022/12/08 06:07:12;;;;;;;17.23;12.65;;;-1.70;99.90;;;;;;5043804;28;20116;-53
2022/12/08 06:09:38;;;;;;;18.13;11.32;;;-1.70;99.90;;;;;;5028906;28;20129;-54
2022/12/08 06:12:04;;;;;;;18.73;12.70;;;-1.80;99.90;;;;;;5027634;28;20049;-54
2022/12/08 06:14:29;;;;;;;20.08;12.35;;;-1.80;99.90;;;;;;5028997;28;20034;-54
2022/12/08 06:16:55;;;;;;;15.20;10.55;;;-1.80;99.90;;;;;;5030841;28;20026;-50
2022/12/08 06:19:21;;;;;;;18.30;11.82;;;-1.80;99.90;;;;;;5048857;27;20029;-52
2022/12/08 06:21:46;;;;;;;17.88;12.73;;;-1.90;99.90;;;;;;5048798;28;20456;-54
2022/12/08 06:24:12;;;;;;;15.90;11.90;;;-2.00;99.90;;;;;;5048562;27;20037;-52
2022/12/08 06:26:40;;;;;;;21.02;12.55;;;-2.00;99.90;;;;;;5048586;28;20024;-52
2022/12/08 06:29:06;;;;;;;18.25;11.35;;;-2.00;99.90;;;;;;5048281;28;20074;-49
2022/12/08 06:31:31;;;;;;;17.75;10.40;;;-2.10;99.90;;;;;;5048630;27;20052;-52
2022/12/08 06:33:57;;;;;;;17.67;11.35;;;-2.10;99.90;;;;;;5048610;27;20072;-52
2022/12/08 06:36:25;;;;;;;17.08;11.93;;;-2.10;99.90;;;;;;5048529;28;20037;-54
2022/12/08 06:38:51;;;;;;;41.90;13.73;;;-2.10;99.90;;;;;;5030956;28;20420;-52
2022/12/08 06:41:17;;;;;;;14.00;11.32;;;-2.20;99.90;;;;;;5028811;28;20072;-52
2022/12/08 06:43:43;;;;;;;21.42;13.48;;;-2.20;99.90;;;;;;5028530;28;20580;-51
2022/12/08 06:46:14;;;;;;;14.30;10.48;;;-2.20;99.90;;;;;;5028624;28;20032;-53
2022/12/08 06:48:39;;;;;;;20.13;10.88;;;-2.30;99.90;;;;;;5044012;28;20033;-51
2022/12/08 06:51:14;;;;;;;17.10;10.68;;;-2.30;99.90;;;;;;5048061;28;20032;-52
2022/12/08 06:53:41;;;;;;;15.63;10.68;;;-2.40;99.90;;;;;;5048275;27;20367;-52
2022/12/08 06:56:08;;;;;;;17.95;11.60;;;-2.40;99.90;;;;;;5046978;28;20486;-55
2022/12/08 06:58:34;;;;;;;24.27;12.32;;;-2.50;99.90;;;;;;5033363;28;20112;-53
2022/12/08 07:01:11;;;;;;;18.63;12.93;;;-2.50;99.90;;;;;;5028353;28;20102;-51
2022/12/08 07:03:37;;;;;;;23.00;14.05;;;-2.50;99.90;;;;;;5028406;28;20025;-53
2022/12/08 07:06:04;;;;;;;20.63;12.38;;;-2.40;99.90;;;;;;5026914;28;20029;-53
2022/12/08 07:08:30;;;;;;;36.95;14.85;;;-2.40;99.90;;;;;;5041469;28;20021;-54
2022/12/08 07:10:55;;;;;;;21.13;14.05;;;-2.30;99.90;;;;;;5047825;27;20033;-54
2022/12/08 07:13:21;;;;;;;24.20;12.88;;;-2.40;99.90;;;;;;5048233;28;20037;-53
2022/12/08 07:15:46;;;;;;;19.83;13.20;;;-2.40;99.90;;;;;;5050775;28;20472;-53
2022/12/08 07:18:12;;;;;;;19.27;12.43;;;-2.40;99.90;;;;;;5040278;28;20043;-53
2022/12/08 07:20:38;;;;;;;19.42;12.70;;;-2.40;99.90;;;;;;5031480;28;20026;-54
2022/12/08 07:23:03;;;;;;;23.25;14.63;;;-2.30;99.90;;;;;;5031627;28;20500;-50
2022/12/08 07:25:29;;;;;;;18.20;13.77;;;-2.30;99.90;;;;;;5031484;28;20026;-53
2022/12/08 07:27:55;;;;;;;22.73;14.68;;;-2.30;99.90;;;;;;5038115;28;20033;-53
2022/12/08 07:30:21;;;;;;;27.83;16.02;;;-2.30;99.90;;;;;;5049394;28;20067;-52
2022/12/08 07:32:46;;;;;;;23.27;13.98;;;-2.30;99.90;;;;;;5051279;28;20020;-54
2022/12/08 07:35:12;;;;;;;24.70;16.25;;;-2.20;99.90;;;;;;5051204;27;20029;-54
2022/12/08 07:37:38;;;;;;;15.70;12.18;;;-2.20;99.90;;;;;;5045450;27;20061;-51
2022/12/08 07:40:05;;;;;;;19.48;13.38;;;-2.20;99.90;;;;;;5031307;28;20075;-50
2022/12/08 07:42:31;;;;;;;17.73;13.32;;;-2.10;99.90;;;;;;5031196;28;20018;-51
2022/12/08 07:44:57;;;;;;;19.40;13.52;;;-2.10;99.90;;;;;;5031134;28;20380;-51
2022/12/08 07:47:22;;;;;;;17.23;13.32;;;-2.00;99.90;;;;;;5034353;28;20472;-56
2022/12/08 07:49:48;;;;;;;28.98;13.57;;;-2.00;99.90;;;;;;5050648;27;20104;-52
2022/12/08 07:52:14;;;;;;;25.58;14.38;;;-2.00;99.90;;;;;;5042027;28;20037;-52
2022/12/08 07:54:39;;;;;;;21.15;13.30;;;-1.80;99.90;;;;;;5031059;28;20056;-56
2022/12/08 07:57:05;;;;;;;18.55;14.07;;;-1.80;99.90;;;;;;5030753;28;20159;-52
2022/12/08 07:59:31;;;;;;;22.00;14.35;;;-1.80;99.90;;;;;;5030807;28;20114;-56
2022/12/08 08:01:57;;;;;;;25.33;13.55;;;-1.70;99.90;;;;;;5035998;27;20026;-54
2022/12/08 08:04:23;;;;;;;17.90;14.15;;;-1.60;99.90;;;;;;5050892;28;20028;-54
2022/12/08 08:06:48;;;;;;;17.65;13.23;;;-1.50;99.90;;;;;;5050738;28;20029;-50
2022/12/08 08:09:14;;;;;;;17.63;12.70;;;-1.40;99.90;;;;;;5050541;27;20033;-53
2022/12/08 08:11:40;;;;;;;16.25;11.93;;;-1.30;99.90;;;;;;5048290;27;20052;-51
2022/12/08 08:14:06;;;;;;;22.15;13.13;;;-1.30;99.90;;;;;;5050422;27;20029;-55
2022/12/08 08:16:31;;;;;;;22.10;14.80;;;-1.20;99.90;;;;;;5050557;27;20116;-52
2022/12/08 08:18:57;;;;;;;26.35;19.20;;;-1.00;99.90;;;;;;5050272;27;20033;-50
2022/12/08 08:21:23;;;;;;;23.42;15.70;;;-0.90;99.90;;;;;;5049259;28;20025;-53
2022/12/08 08:23:48;;;;;;;21.67;15.10;;;-0.80;99.90;;;;;;5032614;28;20555;-51
2022/12/08 08:26:14;;;;;;;18.95;14.48;;;-0.70;99.90;;;;;;5029091;28;20033;-52
2022/12/08 08:28:40;;;;;;;14.90;11.13;;;-0.60;99.90;;;;;;5034039;28;20025;-52
2022/12/08 08:31:06;;;;;;;17.83;10.85;;;-0.50;99.90;;;;;;5063621;27;20076;-54
2022/12/08 08:33:31;;;;;;;15.35;10.98;;;-0.40;99.90;;;;;;5151417;27;20026;-49
2022/12/08 08:35:57;;;;;;;15.30;10.43;;;-0.20;99.90;;;;;;5095770;27;20021;-51
2022/12/08 08:38:22;;;;;;;18.10;10.75;;;-0.20;99.90;;;;;;5052713;27;20044;-52
2022/12/08 08:40:48;;;;;;;15.73;11.70;;;-0.10;99.90;;;;;;5053559;27;20025;-50
2022/12/08 08:43:27;;;;;;;15.07;11.43;;;-0.10;99.90;;;;;;5053135;27;20055;-50
2022/12/08 08:46:03;;;;;;;18.52;12.18;;;0.00;99.90;;;;;;5053168;27;20013;-50
2022/12/08 08:48:30;;;;;;;19.83;12.30;;;0.10;99.90;;;;;;5122317;27;20054;-56
2022/12/08 08:50:57;;;;;;;19.42;13.18;;;0.20;99.90;;;;;;5151040;27;20470;-52
2022/12/08 08:53:23;;;;;;;16.23;12.88;;;0.30;99.90;;;;;;5151864;27;20027;-54
2022/12/08 08:55:49;;;;;;;17.38;12.35;;;0.40;99.90;;;;;;5150850;27;20026;-50
2022/12/08 08:58:15;;;;;;;15.20;12.02;;;0.50;99.90;;;;;;5150781;27;20015;-51
2022/12/08 09:00:41;;;;;;;17.33;11.52;;;0.50;99.90;;;;;;5151634;27;20347;-52
2022/12/08 09:03:06;;;;;;;15.90;11.50;;;0.60;99.90;;;;;;5149630;27;20019;-53
2022/12/08 09:05:32;;;;;;;16.45;11.65;;;0.70;99.90;;;;;;5149607;27;20027;-52
2022/12/08 09:07:58;;;;;;;17.92;11.18;;;0.80;99.90;;;;;;5086437;27;20746;-53
2022/12/08 09:10:23;;;;;;;15.63;11.55;;;0.90;99.90;;;;;;5049167;28;20567;-54
2022/12/08 09:12:49;;;;;;;14.38;11.15;;;1.10;99.90;;;;;;5049268;28;20514;-48
2022/12/08 09:15:15;;;;;;;12.75;9.40;;;1.30;99.90;;;;;;5048754;28;20116;-49
2022/12/08 09:17:40;;;;;;;10.75;8.38;;;1.40;99.90;;;;;;5048920;28;20025;-53
2022/12/08 09:20:07;;;;;;;8.95;7.90;;;1.60;99.90;;;;;;5056038;27;20015;-56
2022/12/08 09:22:32;;;;;;;8.88;7.70;;;2.30;99.90;;;;;;5107998;27;20025;-54
2022/12/08 09:24:58;;;;;;;11.43;7.75;;;3.90;99.90;;;;;;5049159;27;20673;-57
2022/12/08 09:27:24;;;;;;;13.20;8.40;;;5.80;99.90;;;;;;5121809;27;20056;-54
2022/12/08 09:29:49;;;;;;;9.07;7.72;;;7.00;99.90;;;;;;5154336;27;20031;-54
2022/12/08 09:32:15;;;;;;;7.53;5.97;;;8.40;96.00;;;;;;5152878;27;20030;-55
2022/12/08 09:34:40;;;;;;;7.95;5.70;;;10.30;92.10;;;;;;5154212;27;20026;-57
2022/12/08 09:37:06;;;;;;;5.82;5.15;;;11.00;88.90;;;;;;5153803;27;20011;-52
2022/12/08 09:39:32;;;;;;;6.85;5.78;;;11.60;81.20;;;;;;5083257;27;20029;-54
2022/12/08 09:42:05;;;;;;;10.82;5.50;;;12.70;81.60;;;;;;5049279;28;20104;-54
2022/12/08 09:44:37;;;;;;;;;;;13.80;76.60;;;;;;5049840;28;20056;-52
2022/12/08 09:47:12;;;;;;;5.95;5.18;;;14.50;71.40;;;;;;5049053;28;19912;-51
2022/12/08 09:50:05;;;;;;;5.53;4.95;;;14.90;68.00;;;;;;5049345;28;20025;-54
2022/12/08 09:52:39;;;;;;;6.68;4.43;;;15.40;61.30;;;;;;5048761;28;20017;-54
2022/12/08 09:55:16;;;;;;;4.65;4.10;;;15.90;59.90;;;;;;5044732;28;20108;-53
2022/12/08 09:57:42;;;;;;;6.20;5.07;;;16.20;56.20;;;;;;5029100;28;20124;-56
2022/12/08 10:00:11;;;;;;;4.68;4.28;;;14.20;58.30;;;;;;5027620;28;20155;-52
2022/12/08 10:02:36;;;;;;;4.43;4.03;;;15.00;60.70;;;;;;5046565;28;20033;-54
2022/12/08 10:05:02;;;;;;;5.30;4.38;;;16.20;57.00;;;;;;5048879;28;20037;-53
2022/12/08 10:07:59;;;;;;;4.63;4.22;;;15.80;57.10;;;;;;5047623;28;20029;-67
2022/12/08 10:10:41;;;;;;;4.57;4.13;;;14.30;56.40;;;;;;5047208;28;20025;-52
2022/12/08 10:13:32;;;;;;;5.03;4.20;;;14.50;58.10;;;;;;5028665;28;20049;-54
2022/12/08 10:16:27;;;;;;;5.47;4.97;;;15.10;57.00;;;;;;5037826;27;20024;-54
2022/12/08 10:19:14;;;;;;;13.25;4.63;;;15.40;54.70;;;;;;5048760;28;20131;-53
2022/12/08 10:21:40;;;;;;;4.18;3.58;;;15.50;55.00;;;;;;5048750;27;20023;-51
2022/12/08 10:24:25;;;;;;;7.18;4.35;;;15.90;56.30;;;;;;5047261;28;20029;-54
2022/12/08 10:26:50;;;;;;;5.15;4.65;;;15.40;54.80;;;;;;5126462;27;20886;-52
2022/12/08 10:29:16;;;;;;;9.25;5.68;;;14.30;54.70;;;;;;5153013;27;20018;-55
2022/12/08 10:31:42;;;;;;;5.43;4.00;;;14.20;57.00;;;;;;5091605;27;20029;-55
2022/12/08 10:34:22;;;;;;;4.55;4.00;;;14.50;54.80;;;;;;5046090;28;20037;-54
2022/12/08 10:36:50;;;;;;;55.58;30.05;;;14.60;55.50;;;;;;5048447;27;20084;-56
2022/12/08 10:39:38;;;;;;;4.18;3.15;;;16.00;51.80;;;;;;5047551;27;20029;-54
2022/12/08 10:42:08;;;;;;;4.85;3.40;;;16.00;49.50;;;;;;5048903;27;20017;-53
2022/12/08 10:44:52;;;;;;;4.97;3.40;;;15.50;51.70;;;;;;5047817;28;20053;-56
2022/12/08 10:47:20;;;;;;;;;;;17.80;47.30;;;;;;5048515;27;20017;-54
2022/12/08 10:49:45;;;;;;;5.28;3.92;;;16.70;48.10;;;;;;5048280;28;19908;-56
2022/12/08 10:52:29;;;;;;;4.25;3.85;;;16.40;49.40;;;;;;5051280;27;20029;-56
2022/12/08 10:54:59;;;;;;;;;;;16.70;47.80;;;;;;5030942;28;20608;-56
2022/12/08 10:57:24;;;;;;;4.55;3.55;;;15.10;49.50;;;;;;5048820;27;19912;-55
2022/12/08 10:59:54;;;;;;;8.20;3.63;;;16.90;49.80;;;;;;5049077;28;20085;-54
2022/12/08 11:02:20;;;;;;;3.85;3.45;;;18.30;46.20;;;;;;5051269;27;20036;-54
2022/12/08 11:04:46;;;;;;;4.60;4.15;;;17.10;46.00;;;;;;5050608;28;20487;-53
2022/12/08 11:07:20;;;;;;;4.45;4.05;;;16.40;47.20;;;;;;5050481;27;20428;-54
2022/12/08 11:09:51;;;;;;;4.40;4.00;;;16.00;48.00;;;;;;5051643;28;20063;-54
2022/12/08 11:12:19;;;;;;;5.63;4.85;;;15.80;47.70;;;;;;5052184;27;20049;-55
2022/12/08 11:14:47;;;;;;;8.88;4.32;;;15.80;47.50;;;;;;5051571;28;20025;-57
2022/12/08 11:17:23;;;;;;;4.88;4.22;;;15.60;48.00;;;;;;5051477;27;20585;-57
2022/12/08 11:20:18;;;;;;;8.45;4.18;;;15.70;48.30;;;;;;5051349;28;20409;-57
2022/12/08 11:22:50;;;;;;;5.45;4.72;;;15.60;45.60;;;;;;5052249;27;20108;-58
2022/12/08 11:25:24;;;;;;;4.68;4.22;;;15.00;47.40;;;;;;5050217;28;20074;-57
2022/12/08 11:27:57;;;;;;;4.57;4.18;;;16.40;44.70;;;;;;5066571;27;20063;-56
2022/12/08 11:30:39;;;;;;;4.40;4.00;;;15.90;45.30;;;;;;5098241;27;20013;-58
2022/12/08 11:33:12;;;;;;;7.15;4.60;;;15.90;45.60;;;;;;5104889;27;20037;-58
2022/12/08 11:35:42;;;;;;;6.82;4.55;;;15.60;46.80;;;;;;5031698;27;20014;-57
2022/12/08 11:38:45;;;;;;;6.65;4.93;;;15.20;46.20;;;;;;5051209;28;20033;-57
2022/12/08 11:41:15;;;;;;;4.82;4.35;;;15.80;46.00;;;;;;5050865;27;20142;-58
2022/12/08 11:43:59;;;;;;;5.63;4.90;;;16.20;44.20;;;;;;5051349;28;20510;-57
2022/12/08 11:46:35;;;;;;;5.38;4.88;;;15.60;46.10;;;;;;5051881;27;20085;-58
2022/12/08 11:49:05;;;;;;;4.57;4.18;;;15.50;46.30;;;;;;5051217;28;20017;-58
2022/12/08 11:52:15;;;;;;;10.35;4.00;;;15.80;45.20;;;;;;5050965;27;20494;-55
2022/12/08 11:55:04;;;;;;;4.78;3.85;;;15.50;44.80;;;;;;5051142;28;20037;-56
2022/12/08 11:57:29;;;;;;;4.10;3.75;;;16.10;43.90;;;;;;5051577;27;20070;-58
2022/12/08 11:59:57;;;;;;;5.65;4.07;;;15.90;43.40;;;;;;5050109;28;20025;-58
2022/12/08 12:02:28;;;;;;;6.60;4.82;;;15.40;43.10;;;;;;5051086;27;20073;-56
2022/12/08 12:05:34;;;;;;;5.57;5.03;;;14.70;46.00;;;;;;5050897;28;20032;-56
2022/12/08 12:08:07;;;;;;;6.32;5.30;;;13.30;47.60;;;;;;4988720;28;20719;-57
2022/12/08 12:10:36;;;;;;;6.43;5.55;;;12.10;49.70;;;;;;5033793;28;20041;-56
2022/12/08 12:13:20;;;;;;;9.45;5.78;;;11.90;51.50;;;;;;5051104;27;20042;-57
2022/12/08 12:16:14;;;;;;;5.95;5.40;;;12.40;50.60;;;;;;5050766;28;20053;-54
2022/12/08 12:18:45;;;;;;;7.68;6.82;;;13.50;48.70;;;;;;5034226;28;20048;-58
2022/12/08 12:21:23;;;;;;;6.85;5.78;;;13.10;49.30;;;;;;5020487;28;20053;-57
2022/12/08 12:23:56;;;;;;;7.13;6.18;;;14.10;48.90;;;;;;5020468;28;20124;-57
2022/12/08 12:26:28;;;;;;;6.30;5.65;;;13.90;49.20;;;;;;5019625;28;20150;-58
2022/12/08 12:29:27;;;;;;;7.28;5.93;;;13.50;49.00;;;;;;5023831;28;20068;-55
2022/12/08 12:31:59;;;;;;;16.98;9.60;;;12.80;51.30;;;;;;5022400;28;20045;-55
2022/12/08 12:34:35;;;;;;;12.73;7.10;;;12.50;51.70;;;;;;5019165;28;20412;-56
2022/12/08 12:37:12;;;;;;;8.02;5.75;;;12.40;51.80;;;;;;5019196;28;20104;-57
2022/12/08 12:39:52;;;;;;;6.07;5.47;;;12.10;52.70;;;;;;5019862;28;20032;-54
2022/12/08 12:42:39;;;;;;;7.13;5.85;;;11.30;55.20;;;;;;5020784;28;20413;-54
2022/12/08 12:45:16;;;;;;;8.82;6.63;;;10.60;55.70;;;;;;5017667;28;20594;-56
2022/12/08 12:47:49;;;;;;;8.70;7.03;;;9.40;57.80;;;;;;5019150;28;20112;-56
2022/12/08 12:50:33;;;;;;;15.25;6.43;;;8.80;59.90;;;;;;5019552;28;20034;-56
2022/12/08 12:53:20;;;;;;;6.72;6.03;;;8.20;62.40;;;;;;5019694;28;20408;-56
2022/12/08 12:55:54;;;;;;;7.57;5.70;;;7.60;64.30;;;;;;5019635;28;20091;-57
2022/12/08 12:58:28;;;;;;;9.75;6.05;;;7.30;65.20;;;;;;5020024;28;20030;-54